MSC Luisa — H9XU — position and weather

sailwx.info

Track history (hours):
 
Tides and Currents Weather Stations Pressure Air Temp Water Temp Dewpoint Dewpoint Depression Visibility Wind Speed Wind Dir Waves Ship Positions

MSC Luisa

Last reported at 2014-Jul-17 18:31 UTC. Time now 2014-Jul-22 21:39 UTC.
Position N 26°32' W 078°46'.

; draft 9.3 m.

Type: Ship. MMSI: 355308000.

Date/timePositionNaut miles runAvg speedWind from/ knotsBaromVisibWave heightAir tempDewpointWater temp
2014-Jul-17 18:31N 26°32' W 078°46'6 0.2
2014-Jul-16 03:22N 26°27' W 078°51'3 4.0
2014-Jul-16 02:32N 26°28' W 078°54'2 2.0
2014-Jul-16 01:30N 26°28' W 078°57'1 0.7
2014-Jul-16 00:24N 26°28' W 078°58'1 0.2
2014-Jul-15 20:19N 26°27' W 078°59'0 0.4
2014-Jul-15 19:33N 26°27' W 078°59'1 0.5
2014-Jul-15 18:33N 26°26' W 078°59'0 0.4
2014-Jul-15 17:33N 26°26' W 078°59'0 0.3
2014-Jul-15 16:33N 26°26' W 078°60'2 0.3
2014-Jul-15 09:21N 26°24' W 078°58'5 1.2
2014-Jul-15 05:07N 26°24' W 078°52'1 1.3
2014-Jul-15 04:32N 26°24' W 078°51'1 1.0
2014-Jul-15 03:27N 26°24' W 078°50'1 0.4
2014-Jul-15 01:22N 26°24' W 078°49'4414.6
2014-Jul-14 22:20N 27°02' W 079°14'308 7.0
2014-Jul-13 02:23N 31°60' W 080°47'1011.9
2014-Jul-13 01:33N 32°04' W 080°57'8 7.7
2014-Jul-13 00:33N 32°06' W 081°06'3 3.0
2014-Jul-12 23:30N 32°08' W 081°09'0 0.0
2014-Jul-12 22:33N 32°08' W 081°09'0 0.0
2014-Jul-12 21:31N 32°08' W 081°09'0 0.0
2014-Jul-12 20:21N 32°08' W 081°09'0 0.0
2014-Jul-12 19:33N 32°08' W 081°09'0 0.0
2014-Jul-12 18:19N 32°08' W 081°09'0 0.0
2014-Jul-12 17:31N 32°08' W 081°09'0 0.0
2014-Jul-12 16:22N 32°08' W 081°09'0 0.0
2014-Jul-12 15:33N 32°08' W 081°09'0 0.0
2014-Jul-12 14:33N 32°08' W 081°09'0 0.0
2014-Jul-12 13:33N 32°08' W 081°09'0 0.0
2014-Jul-12 12:34N 32°08' W 081°09'0 0.0
2014-Jul-12 11:30N 32°08' W 081°09'0 0.0
2014-Jul-12 10:24N 32°08' W 081°09'0 0.0
2014-Jul-12 09:28N 32°08' W 081°09'1 1.1
2014-Jul-12 08:33N 32°07' W 081°08'6 5.9
2014-Jul-12 07:33N 32°06' W 081°01'38311.6
2014-Jul-10 22:31N 36°56' W 075°58'1414.4
2014-Jul-10 21:32N 37°00' W 076°14'9 8.7
2014-Jul-10 20:33N 36°53' W 076°20'1 0.8
2014-Jul-10 19:24N 36°53' W 076°21'0 0.0
2014-Jul-10 18:31N 36°53' W 076°21'0 0.0
2014-Jul-10 17:32N 36°53' W 076°21'0 0.0
2014-Jul-10 16:20N 36°53' W 076°21'0 0.0
2014-Jul-10 15:23N 36°53' W 076°21'0 0.0
2014-Jul-10 14:17N 36°53' W 076°21'0 0.0
2014-Jul-10 13:33N 36°53' W 076°21'0 0.0
2014-Jul-10 12:31N 36°53' W 076°21'0 0.0
2014-Jul-10 11:32N 36°53' W 076°21'0 0.0
2014-Jul-10 10:31N 36°53' W 076°21'0 0.0
2014-Jul-10 09:31N 36°53' W 076°21'0 0.0
2014-Jul-10 08:30N 36°53' W 076°21'0 0.0
2014-Jul-10 07:29N 36°53' W 076°21'0 0.0
2014-Jul-10 06:31N 36°53' W 076°21'0 0.0
2014-Jul-10 05:30N 36°53' W 076°21'0 0.0
2014-Jul-10 04:31N 36°53' W 076°21'0 0.0
2014-Jul-10 03:31N 36°53' W 076°21'0 0.0
2014-Jul-10 02:33N 36°53' W 076°21'0 0.0
2014-Jul-10 01:33N 36°53' W 076°21'0 0.0
2014-Jul-10 00:33N 36°53' W 076°21'3 3.4
2014-Jul-09 23:33N 36°56' W 076°20'1211.7
2014-Jul-09 22:33N 36°58' W 076°06'7 6.3
2014-Jul-09 21:31N 37°05' W 076°06'9017.2
2014-Jul-09 16:18N 38°33' W 076°26'1418.9
2014-Jul-09 15:33N 38°47' W 076°25'1615.8
2014-Jul-09 14:33N 39°03' W 076°23'1010.3
2014-Jul-09 13:33N 39°12' W 076°30'4 3.8
2014-Jul-09 12:33N 39°15' W 076°33'0 0.0
2014-Jul-09 11:33N 39°15' W 076°33'0 0.0
2014-Jul-09 10:33N 39°15' W 076°33'0 0.0
2014-Jul-09 09:33N 39°15' W 076°33'0 0.0
2014-Jul-09 08:33N 39°15' W 076°33'0 0.0
2014-Jul-09 07:33N 39°15' W 076°33'0 0.0
2014-Jul-09 06:33N 39°15' W 076°33'0 0.0
2014-Jul-09 05:33N 39°15' W 076°33'0 0.0
2014-Jul-09 04:33N 39°15' W 076°33'0 0.0
2014-Jul-09 03:33N 39°15' W 076°33'0 0.0
2014-Jul-09 02:33N 39°15' W 076°33'0 0.0
2014-Jul-09 01:33N 39°15' W 076°33'0 0.0
2014-Jul-09 00:33N 39°15' W 076°33'0 0.0
2014-Jul-08 23:33N 39°15' W 076°33'0 0.0
2014-Jul-08 22:33N 39°15' W 076°33'0 0.0
2014-Jul-08 21:33N 39°15' W 076°33'0 0.0
2014-Jul-08 20:33N 39°15' W 076°33'0 0.0
2014-Jul-08 19:33N 39°15' W 076°33'0 0.0
2014-Jul-08 18:33N 39°15' W 076°33'0 0.0
2014-Jul-08 17:33N 39°15' W 076°33'0 0.0
2014-Jul-08 16:33N 39°15' W 076°33'0 0.0
2014-Jul-08 15:33N 39°15' W 076°33'0 0.0
2014-Jul-08 14:33N 39°15' W 076°33'3 2.6
2014-Jul-08 13:33N 39°13' W 076°31'1010.4
2014-Jul-08 12:33N 39°04' W 076°24'1515.1
2014-Jul-08 11:33N 38°49' W 076°25'9916.1
2014-Jul-08 05:26N 37°11' W 076°09'1314.1
2014-Jul-08 04:33N 37°00' W 076°02'3511.4
2014-Jul-08 01:30N 37°13' W 075°21'1717.9
2014-Jul-08 00:33N 37°28' W 075°10'1817.9
2014-Jul-07 23:33N 37°43' W 074°59'1817.9
2014-Jul-07 22:33N 37°58' W 074°47'1817.7
2014-Jul-07 21:33N 38°13' W 074°36'1818.1
2014-Jul-07 20:33N 38°29' W 074°24'1818.2
2014-Jul-07 19:33N 38°45' W 074°12'1818.4
2014-Jul-07 18:33N 39°01' W 074°01'  
Track history (hours):
 
Tides and Currents Weather Stations Pressure Air Temp Water Temp Dewpoint Dewpoint Depression Visibility Wind Speed Wind Dir Waves Ship Positions

MSC Luisa

Last reported at 2014-Jul-17 18:31 UTC. Time now 2014-Jul-22 21:39 UTC.
Position N 26°32' W 078°46'.

; draft 9.3 m.

Type: Ship. MMSI: 355308000.

Date/timePositionNaut miles runAvg speedWind from/ knotsBaromVisibWave heightAir tempDewpointWater temp
2014-Jul-17 18:31N 26°32' W 078°46'6 0.2
2014-Jul-16 03:22N 26°27' W 078°51'3 4.0
2014-Jul-16 02:32N 26°28' W 078°54'2 2.0
2014-Jul-16 01:30N 26°28' W 078°57'1 0.7
2014-Jul-16 00:24N 26°28' W 078°58'1 0.2
2014-Jul-15 20:19N 26°27' W 078°59'0 0.4
2014-Jul-15 19:33N 26°27' W 078°59'1 0.5
2014-Jul-15 18:33N 26°26' W 078°59'0 0.4
2014-Jul-15 17:33N 26°26' W 078°59'0 0.3
2014-Jul-15 16:33N 26°26' W 078°60'2 0.3
2014-Jul-15 09:21N 26°24' W 078°58'5 1.2
2014-Jul-15 05:07N 26°24' W 078°52'1 1.3
2014-Jul-15 04:32N 26°24' W 078°51'1 1.0
2014-Jul-15 03:27N 26°24' W 078°50'1 0.4
2014-Jul-15 01:22N 26°24' W 078°49'4414.6
2014-Jul-14 22:20N 27°02' W 079°14'308 7.0
2014-Jul-13 02:23N 31°60' W 080°47'1011.9
2014-Jul-13 01:33N 32°04' W 080°57'8 7.7
2014-Jul-13 00:33N 32°06' W 081°06'3 3.0
2014-Jul-12 23:30N 32°08' W 081°09'0 0.0
2014-Jul-12 22:33N 32°08' W 081°09'0 0.0
2014-Jul-12 21:31N 32°08' W 081°09'0 0.0
2014-Jul-12 20:21N 32°08' W 081°09'0 0.0
2014-Jul-12 19:33N 32°08' W 081°09'0 0.0
2014-Jul-12 18:19N 32°08' W 081°09'0 0.0
2014-Jul-12 17:31N 32°08' W 081°09'0 0.0
2014-Jul-12 16:22N 32°08' W 081°09'0 0.0
2014-Jul-12 15:33N 32°08' W 081°09'0 0.0
2014-Jul-12 14:33N 32°08' W 081°09'0 0.0
2014-Jul-12 13:33N 32°08' W 081°09'0 0.0
2014-Jul-12 12:34N 32°08' W 081°09'0 0.0
2014-Jul-12 11:30N 32°08' W 081°09'0 0.0
2014-Jul-12 10:24N 32°08' W 081°09'0 0.0
2014-Jul-12 09:28N 32°08' W 081°09'1 1.1
2014-Jul-12 08:33N 32°07' W 081°08'6 5.9
2014-Jul-12 07:33N 32°06' W 081°01'38311.6
2014-Jul-10 22:31N 36°56' W 075°58'1414.4
2014-Jul-10 21:32N 37°00' W 076°14'9 8.7
2014-Jul-10 20:33N 36°53' W 076°20'1 0.8
2014-Jul-10 19:24N 36°53' W 076°21'0 0.0
2014-Jul-10 18:31N 36°53' W 076°21'0 0.0
2014-Jul-10 17:32N 36°53' W 076°21'0 0.0
2014-Jul-10 16:20N 36°53' W 076°21'0 0.0
2014-Jul-10 15:23N 36°53' W 076°21'0 0.0
2014-Jul-10 14:17N 36°53' W 076°21'0 0.0
2014-Jul-10 13:33N 36°53' W 076°21'0 0.0
2014-Jul-10 12:31N 36°53' W 076°21'0 0.0
2014-Jul-10 11:32N 36°53' W 076°21'0 0.0
2014-Jul-10 10:31N 36°53' W 076°21'0 0.0
2014-Jul-10 09:31N 36°53' W 076°21'0 0.0
2014-Jul-10 08:30N 36°53' W 076°21'0 0.0
2014-Jul-10 07:29N 36°53' W 076°21'0 0.0
2014-Jul-10 06:31N 36°53' W 076°21'0 0.0
2014-Jul-10 05:30N 36°53' W 076°21'0 0.0
2014-Jul-10 04:31N 36°53' W 076°21'0 0.0
2014-Jul-10 03:31N 36°53' W 076°21'0 0.0
2014-Jul-10 02:33N 36°53' W 076°21'0 0.0
2014-Jul-10 01:33N 36°53' W 076°21'0 0.0
2014-Jul-10 00:33N 36°53' W 076°21'3 3.4
2014-Jul-09 23:33N 36°56' W 076°20'1211.7
2014-Jul-09 22:33N 36°58' W 076°06'7 6.3
2014-Jul-09 21:31N 37°05' W 076°06'9017.2
2014-Jul-09 16:18N 38°33' W 076°26'1418.9
2014-Jul-09 15:33N 38°47' W 076°25'1615.8
2014-Jul-09 14:33N 39°03' W 076°23'1010.3
2014-Jul-09 13:33N 39°12' W 076°30'4 3.8
2014-Jul-09 12:33N 39°15' W 076°33'0 0.0
2014-Jul-09 11:33N 39°15' W 076°33'0 0.0
2014-Jul-09 10:33N 39°15' W 076°33'0 0.0
2014-Jul-09 09:33N 39°15' W 076°33'0 0.0
2014-Jul-09 08:33N 39°15' W 076°33'0 0.0
2014-Jul-09 07:33N 39°15' W 076°33'0 0.0
2014-Jul-09 06:33N 39°15' W 076°33'0 0.0
2014-Jul-09 05:33N 39°15' W 076°33'0 0.0
2014-Jul-09 04:33N 39°15' W 076°33'0 0.0
2014-Jul-09 03:33N 39°15' W 076°33'0 0.0
2014-Jul-09 02:33N 39°15' W 076°33'0 0.0
2014-Jul-09 01:33N 39°15' W 076°33'0 0.0
2014-Jul-09 00:33N 39°15' W 076°33'0 0.0
2014-Jul-08 23:33N 39°15' W 076°33'0 0.0
2014-Jul-08 22:33N 39°15' W 076°33'0 0.0
2014-Jul-08 21:33N 39°15' W 076°33'0 0.0
2014-Jul-08 20:33N 39°15' W 076°33'0 0.0
2014-Jul-08 19:33N 39°15' W 076°33'0 0.0
2014-Jul-08 18:33N 39°15' W 076°33'0 0.0
2014-Jul-08 17:33N 39°15' W 076°33'0 0.0
2014-Jul-08 16:33N 39°15' W 076°33'0 0.0
2014-Jul-08 15:33N 39°15' W 076°33'0 0.0
2014-Jul-08 14:33N 39°15' W 076°33'3 2.6
2014-Jul-08 13:33N 39°13' W 076°31'1010.4
2014-Jul-08 12:33N 39°04' W 076°24'1515.1
2014-Jul-08 11:33N 38°49' W 076°25'9916.1
2014-Jul-08 05:26N 37°11' W 076°09'1314.1
2014-Jul-08 04:33N 37°00' W 076°02'3511.4
2014-Jul-08 01:30N 37°13' W 075°21'1717.9
2014-Jul-08 00:33N 37°28' W 075°10'1817.9
2014-Jul-07 23:33N 37°43' W 074°59'1817.9
2014-Jul-07 22:33N 37°58' W 074°47'1817.7
2014-Jul-07 21:33N 38°13' W 074°36'1818.1
2014-Jul-07 20:33N 38°29' W 074°24'1818.2
2014-Jul-07 19:33N 38°45' W 074°12'1818.4
2014-Jul-07 18:33N 39°01' W 074°01'  

Dump ship's entire track history